Terminal Aerodrome Forecast
Issued by NWS North Platte, NE

Home | Current Version | Previous Version | Graphics & Text | Print | Product List | Glossary On
Versions: 1 2 3 4 5 6 7 8 9 10 11 12 13 14
000
FTUS43 KLBF 010500
TAFVTN
TAF
KVTN 010520Z 0106/0206 10011KT P6SM VCTS BKN120CB
     FM011200 31008KT P6SM SKC
     FM011900 33012G19KT P6SM SKC
     FM020100 01009KT P6SM SKC=

USA.gov is the U.S. government's official web portal to all federal, state and local government web resources and services.